sensor_id;sensor_type;location;lat;lon;timestamp;temperature;humidity
77305;DHT22;66364;52.622;7.746;2023-07-20T00:00:03;16.80;99.90
77305;DHT22;66364;52.622;7.746;2023-07-20T00:02:05;16.90;99.90
77305;DHT22;66364;52.622;7.746;2023-07-20T00:04:06;16.90;99.90
77305;DHT22;66364;52.622;7.746;2023-07-20T00:06:07;17.10;99.90
77305;DHT22;66364;52.622;7.746;2023-07-20T00:08:08;16.50;99.90
77305;DHT22;66364;52.622;7.746;2023-07-20T00:10:12;16.80;99.90
77305;DHT22;66364;52.622;7.746;2023-07-20T00:12:14;17.00;99.90
77305;DHT22;66364;52.622;7.746;2023-07-20T00:14:15;16.90;99.90
77305;DHT22;66364;52.622;7.746;2023-07-20T00:16:16;16.70;99.90
77305;DHT22;66364;52.622;7.746;2023-07-20T00:18:17;16.50;99.90
77305;DHT22;66364;52.622;7.746;2023-07-20T00:20:18;16.70;99.90
77305;DHT22;66364;52.622;7.746;2023-07-20T00:22:19;16.60;99.90
77305;DHT22;66364;52.622;7.746;2023-07-20T00:24:20;16.80;99.90
77305;DHT22;66364;52.622;7.746;2023-07-20T00:26:21;16.90;99.90
77305;DHT22;66364;52.622;7.746;2023-07-20T00:28:22;16.80;99.90
77305;DHT22;66364;52.622;7.746;2023-07-20T00:30:23;17.00;99.90
77305;DHT22;66364;52.622;7.746;2023-07-20T00:32:25;17.10;99.90
77305;DHT22;66364;52.622;7.746;2023-07-20T00:34:26;16.80;99.90
77305;DHT22;66364;52.622;7.746;2023-07-20T00:36:27;16.90;99.90
77305;DHT22;66364;52.622;7.746;2023-07-20T00:38:27;16.90;99.90
77305;DHT22;66364;52.622;7.746;2023-07-20T00:40:28;16.60;99.90
77305;DHT22;66364;52.622;7.746;2023-07-20T00:42:30;17.00;99.90
77305;DHT22;66364;52.622;7.746;2023-07-20T00:44:30;16.70;99.90
77305;DHT22;66364;52.622;7.746;2023-07-20T00:46:32;17.00;99.90
77305;DHT22;66364;52.622;7.746;2023-07-20T00:48:34;17.00;99.90
77305;DHT22;66364;52.622;7.746;2023-07-20T00:50:35;17.10;99.90
77305;DHT22;66364;52.622;7.746;2023-07-20T00:52:37;16.70;99.90
77305;DHT22;66364;52.622;7.746;2023-07-20T00:54:39;16.70;99.90
77305;DHT22;66364;52.622;7.746;2023-07-20T00:56:41;16.70;99.90
77305;DHT22;66364;52.622;7.746;2023-07-20T00:58:42;16.80;99.90
77305;DHT22;66364;52.622;7.746;2023-07-20T01:00:44;16.80;99.90
77305;DHT22;66364;52.622;7.746;2023-07-20T01:02:46;16.70;99.90
77305;DHT22;66364;52.622;7.746;2023-07-20T01:04:47;16.60;99.90
77305;DHT22;66364;52.622;7.746;2023-07-20T01:07:12;16.60;99.90
77305;DHT22;66364;52.622;7.746;2023-07-20T01:09:18;16.50;99.90
77305;DHT22;66364;52.622;7.746;2023-07-20T01:13:42;16.50;99.90
77305;DHT22;66364;52.622;7.746;2023-07-20T01:15:56;16.30;99.90
77305;DHT22;66364;52.622;7.746;2023-07-20T01:17:55;16.20;99.90
77305;DHT22;66364;52.622;7.746;2023-07-20T01:19:55;16.10;99.90
77305;DHT22;66364;52.622;7.746;2023-07-20T01:31:27;15.80;99.90
77305;DHT22;66364;52.622;7.746;2023-07-20T01:33:31;15.90;99.90
77305;DHT22;66364;52.622;7.746;2023-07-20T01:35:36;15.50;99.90
77305;DHT22;66364;52.622;7.746;2023-07-20T01:37:38;15.30;99.90
77305;DHT22;66364;52.622;7.746;2023-07-20T01:39:47;15.40;99.90
77305;DHT22;66364;52.622;7.746;2023-07-20T01:41:48;15.50;99.90
77305;DHT22;66364;52.622;7.746;2023-07-20T01:43:49;15.50;99.90
77305;DHT22;66364;52.622;7.746;2023-07-20T01:45:50;15.50;99.90
77305;DHT22;66364;52.622;7.746;2023-07-20T01:47:51;15.80;99.90
77305;DHT22;66364;52.622;7.746;2023-07-20T01:49:52;15.30;99.90
77305;DHT22;66364;52.622;7.746;2023-07-20T01:51:53;15.40;99.90
77305;DHT22;66364;52.622;7.746;2023-07-20T01:53:54;15.50;99.90
77305;DHT22;66364;52.622;7.746;2023-07-20T01:55:56;15.60;99.90
77305;DHT22;66364;52.622;7.746;2023-07-20T01:57:57;15.50;99.90
77305;DHT22;66364;52.622;7.746;2023-07-20T01:59:59;15.50;99.90
77305;DHT22;66364;52.622;7.746;2023-07-20T02:01:59;15.60;99.90
77305;DHT22;66364;52.622;7.746;2023-07-20T02:04:00;15.50;99.90
77305;DHT22;66364;52.622;7.746;2023-07-20T02:06:02;15.60;99.90
77305;DHT22;66364;52.622;7.746;2023-07-20T02:08:05;15.40;99.90
77305;DHT22;66364;52.622;7.746;2023-07-20T02:10:06;15.40;99.90
77305;DHT22;66364;52.622;7.746;2023-07-20T02:12:08;15.40;99.90
77305;DHT22;66364;52.622;7.746;2023-07-20T02:14:09;15.30;99.90
77305;DHT22;66364;52.622;7.746;2023-07-20T02:16:10;15.20;99.90
77305;DHT22;66364;52.622;7.746;2023-07-20T02:18:11;15.10;99.90
77305;DHT22;66364;52.622;7.746;2023-07-20T02:20:13;15.10;99.90
77305;DHT22;66364;52.622;7.746;2023-07-20T02:22:14;15.00;99.90
77305;DHT22;66364;52.622;7.746;2023-07-20T02:24:15;15.30;99.90
77305;DHT22;66364;52.622;7.746;2023-07-20T02:26:16;15.20;99.90
77305;DHT22;66364;52.622;7.746;2023-07-20T02:28:18;15.10;99.90
77305;DHT22;66364;52.622;7.746;2023-07-20T02:30:20;15.10;99.90
77305;DHT22;66364;52.622;7.746;2023-07-20T02:32:23;15.20;99.90
77305;DHT22;66364;52.622;7.746;2023-07-20T02:34:25;15.40;99.90
77305;DHT22;66364;52.622;7.746;2023-07-20T02:36:28;15.20;99.90
77305;DHT22;66364;52.622;7.746;2023-07-20T02:38:30;15.10;99.90
77305;DHT22;66364;52.622;7.746;2023-07-20T02:40:31;15.00;99.90
77305;DHT22;66364;52.622;7.746;2023-07-20T02:42:35;15.10;99.90
77305;DHT22;66364;52.622;7.746;2023-07-20T02:44:37;14.90;99.90
77305;DHT22;66364;52.622;7.746;2023-07-20T02:46:39;15.10;99.90
77305;DHT22;66364;52.622;7.746;2023-07-20T02:48:41;14.90;99.90
77305;DHT22;66364;52.622;7.746;2023-07-20T02:50:44;15.10;99.90
77305;DHT22;66364;52.622;7.746;2023-07-20T02:52:45;14.80;99.90
77305;DHT22;66364;52.622;7.746;2023-07-20T02:54:48;14.90;99.90
77305;DHT22;66364;52.622;7.746;2023-07-20T02:56:51;15.10;99.90
77305;DHT22;66364;52.622;7.746;2023-07-20T02:58:53;15.00;99.90
77305;DHT22;66364;52.622;7.746;2023-07-20T03:00:54;15.10;99.90
77305;DHT22;66364;52.622;7.746;2023-07-20T03:02:57;14.90;99.90
77305;DHT22;66364;52.622;7.746;2023-07-20T03:05:00;14.80;99.90
77305;DHT22;66364;52.622;7.746;2023-07-20T03:07:01;15.00;99.90
77305;DHT22;66364;52.622;7.746;2023-07-20T03:09:02;15.00;99.90
77305;DHT22;66364;52.622;7.746;2023-07-20T03:11:05;14.90;99.90
77305;DHT22;66364;52.622;7.746;2023-07-20T03:13:06;14.90;99.90
77305;DHT22;66364;52.622;7.746;2023-07-20T03:15:08;14.90;99.90
77305;DHT22;66364;52.622;7.746;2023-07-20T03:17:11;14.80;99.90
77305;DHT22;66364;52.622;7.746;2023-07-20T03:19:12;14.90;99.90
77305;DHT22;66364;52.622;7.746;2023-07-20T03:21:15;15.20;99.90
77305;DHT22;66364;52.622;7.746;2023-07-20T03:23:17;15.00;99.90
77305;DHT22;66364;52.622;7.746;2023-07-20T03:25:18;15.00;99.90
77305;DHT22;66364;52.622;7.746;2023-07-20T03:27:20;15.00;99.90
77305;DHT22;66364;52.622;7.746;2023-07-20T03:29:21;14.80;99.90
77305;DHT22;66364;52.622;7.746;2023-07-20T03:31:21;14.90;99.90
77305;DHT22;66364;52.622;7.746;2023-07-20T03:33:28;15.20;99.90
77305;DHT22;66364;52.622;7.746;2023-07-20T03:35:29;15.00;99.90
77305;DHT22;66364;52.622;7.746;2023-07-20T03:37:31;15.00;99.90
77305;DHT22;66364;52.622;7.746;2023-07-20T03:39:32;14.80;99.90
77305;DHT22;66364;52.622;7.746;2023-07-20T03:41:33;15.00;99.90
77305;DHT22;66364;52.622;7.746;2023-07-20T03:43:34;14.90;99.90
77305;DHT22;66364;52.622;7.746;2023-07-20T03:45:35;14.90;99.90
77305;DHT22;66364;52.622;7.746;2023-07-20T03:47:36;14.90;99.90
77305;DHT22;66364;52.622;7.746;2023-07-20T03:49:38;14.90;99.90
77305;DHT22;66364;52.622;7.746;2023-07-20T03:51:39;14.80;99.90
77305;DHT22;66364;52.622;7.746;2023-07-20T03:53:40;15.00;99.90
77305;DHT22;66364;52.622;7.746;2023-07-20T03:55:44;14.90;99.90
77305;DHT22;66364;52.622;7.746;2023-07-20T03:57:46;14.90;99.90
77305;DHT22;66364;52.622;7.746;2023-07-20T03:59:48;15.10;99.90
77305;DHT22;66364;52.622;7.746;2023-07-20T04:01:49;14.80;99.90
77305;DHT22;66364;52.622;7.746;2023-07-20T04:03:50;14.90;99.90
77305;DHT22;66364;52.622;7.746;2023-07-20T04:05:53;14.80;99.90
77305;DHT22;66364;52.622;7.746;2023-07-20T04:07:55;14.80;99.90
77305;DHT22;66364;52.622;7.746;2023-07-20T04:09:56;14.70;99.90
77305;DHT22;66364;52.622;7.746;2023-07-20T04:11:57;14.80;99.90
77305;DHT22;66364;52.622;7.746;2023-07-20T04:13:57;14.80;99.90
77305;DHT22;66364;52.622;7.746;2023-07-20T04:15:58;14.70;99.90
77305;DHT22;66364;52.622;7.746;2023-07-20T04:17:59;14.70;99.90
77305;DHT22;66364;52.622;7.746;2023-07-20T04:20:00;14.70;99.90
77305;DHT22;66364;52.622;7.746;2023-07-20T04:22:01;14.60;99.90
77305;DHT22;66364;52.622;7.746;2023-07-20T04:24:02;14.70;99.90
77305;DHT22;66364;52.622;7.746;2023-07-20T04:26:04;14.50;99.90
77305;DHT22;66364;52.622;7.746;2023-07-20T04:28:06;14.90;99.90
77305;DHT22;66364;52.622;7.746;2023-07-20T04:30:08;14.80;99.90
77305;DHT22;66364;52.622;7.746;2023-07-20T04:32:10;14.60;99.90
77305;DHT22;66364;52.622;7.746;2023-07-20T04:34:11;14.50;99.90
77305;DHT22;66364;52.622;7.746;2023-07-20T04:36:12;14.60;99.90
77305;DHT22;66364;52.622;7.746;2023-07-20T04:38:14;14.70;99.90
77305;DHT22;66364;52.622;7.746;2023-07-20T04:40:15;15.00;99.90
77305;DHT22;66364;52.622;7.746;2023-07-20T04:42:16;14.70;99.90
77305;DHT22;66364;52.622;7.746;2023-07-20T04:44:17;14.60;99.90
77305;DHT22;66364;52.622;7.746;2023-07-20T04:46:19;14.70;99.90
77305;DHT22;66364;52.622;7.746;2023-07-20T04:48:20;14.80;99.90
77305;DHT22;66364;52.622;7.746;2023-07-20T04:50:21;14.80;99.90
77305;DHT22;66364;52.622;7.746;2023-07-20T04:52:22;14.90;99.90
77305;DHT22;66364;52.622;7.746;2023-07-20T04:54:23;14.80;99.90
77305;DHT22;66364;52.622;7.746;2023-07-20T04:56:24;14.80;99.90
77305;DHT22;66364;52.622;7.746;2023-07-20T04:58:25;14.70;99.90
77305;DHT22;66364;52.622;7.746;2023-07-20T05:00:26;14.70;99.90
77305;DHT22;66364;52.622;7.746;2023-07-20T05:02:27;14.40;99.90
77305;DHT22;66364;52.622;7.746;2023-07-20T05:04:28;15.00;99.90
77305;DHT22;66364;52.622;7.746;2023-07-20T05:06:29;14.80;99.90
77305;DHT22;66364;52.622;7.746;2023-07-20T05:08:30;14.60;99.90
77305;DHT22;66364;52.622;7.746;2023-07-20T05:10:31;14.80;99.90
77305;DHT22;66364;52.622;7.746;2023-07-20T05:12:32;14.70;99.90
77305;DHT22;66364;52.622;7.746;2023-07-20T05:14:33;14.70;99.90
77305;DHT22;66364;52.622;7.746;2023-07-20T05:16:35;14.90;99.90
77305;DHT22;66364;52.622;7.746;2023-07-20T05:18:37;14.90;99.90
77305;DHT22;66364;52.622;7.746;2023-07-20T05:20:38;14.80;99.90
77305;DHT22;66364;52.622;7.746;2023-07-20T05:22:39;14.80;99.90
77305;DHT22;66364;52.622;7.746;2023-07-20T05:24:40;14.90;99.90
77305;DHT22;66364;52.622;7.746;2023-07-20T05:26:40;14.90;99.90
77305;DHT22;66364;52.622;7.746;2023-07-20T05:28:41;14.90;99.90
77305;DHT22;66364;52.622;7.746;2023-07-20T05:30:42;15.10;99.90
77305;DHT22;66364;52.622;7.746;2023-07-20T05:32:47;14.90;99.90
77305;DHT22;66364;52.622;7.746;2023-07-20T05:34:53;15.00;99.90
77305;DHT22;66364;52.622;7.746;2023-07-20T05:36:55;15.00;99.90
77305;DHT22;66364;52.622;7.746;2023-07-20T05:38:57;15.10;99.90
77305;DHT22;66364;52.622;7.746;2023-07-20T05:41:01;15.10;99.90
77305;DHT22;66364;52.622;7.746;2023-07-20T05:43:10;15.10;99.90
77305;DHT22;66364;52.622;7.746;2023-07-20T05:45:12;15.10;99.90
77305;DHT22;66364;52.622;7.746;2023-07-20T05:47:13;15.20;99.90
77305;DHT22;66364;52.622;7.746;2023-07-20T05:49:14;15.30;99.90
77305;DHT22;66364;52.622;7.746;2023-07-20T05:51:15;15.20;99.90
77305;DHT22;66364;52.622;7.746;2023-07-20T05:53:16;15.20;99.90
77305;DHT22;66364;52.622;7.746;2023-07-20T05:55:17;15.20;99.90
77305;DHT22;66364;52.622;7.746;2023-07-20T05:57:18;15.30;99.90
77305;DHT22;66364;52.622;7.746;2023-07-20T05:59:20;15.30;99.90
77305;DHT22;66364;52.622;7.746;2023-07-20T06:01:21;15.40;99.90
77305;DHT22;66364;52.622;7.746;2023-07-20T06:03:28;15.40;99.90
77305;DHT22;66364;52.622;7.746;2023-07-20T06:05:29;15.30;99.90
77305;DHT22;66364;52.622;7.746;2023-07-20T06:07:30;15.40;99.90
77305;DHT22;66364;52.622;7.746;2023-07-20T06:09:31;15.20;99.90
77305;DHT22;66364;52.622;7.746;2023-07-20T06:11:39;15.50;99.90
77305;DHT22;66364;52.622;7.746;2023-07-20T06:14:00;15.50;99.90
77305;DHT22;66364;52.622;7.746;2023-07-20T06:16:02;15.20;99.90
77305;DHT22;66364;52.622;7.746;2023-07-20T06:18:04;15.50;99.90
77305;DHT22;66364;52.622;7.746;2023-07-20T06:20:11;15.50;99.90
77305;DHT22;66364;52.622;7.746;2023-07-20T06:22:12;15.20;99.90
77305;DHT22;66364;52.622;7.746;2023-07-20T06:24:13;15.40;99.90
77305;DHT22;66364;52.622;7.746;2023-07-20T06:26:14;15.60;99.90
77305;DHT22;66364;52.622;7.746;2023-07-20T06:28:15;15.60;99.90
77305;DHT22;66364;52.622;7.746;2023-07-20T06:30:17;15.60;99.90
77305;DHT22;66364;52.622;7.746;2023-07-20T06:32:18;15.70;99.90
77305;DHT22;66364;52.622;7.746;2023-07-20T06:34:19;15.80;99.90
77305;DHT22;66364;52.622;7.746;2023-07-20T06:36:20;15.70;99.90
77305;DHT22;66364;52.622;7.746;2023-07-20T06:38:21;15.80;99.90
77305;DHT22;66364;52.622;7.746;2023-07-20T06:40:22;15.90;99.90
77305;DHT22;66364;52.622;7.746;2023-07-20T06:42:23;15.90;99.90
77305;DHT22;66364;52.622;7.746;2023-07-20T06:44:24;15.90;99.90
77305;DHT22;66364;52.622;7.746;2023-07-20T06:46:26;16.10;99.90
77305;DHT22;66364;52.622;7.746;2023-07-20T06:48:27;16.00;99.90
77305;DHT22;66364;52.622;7.746;2023-07-20T06:50:28;16.10;99.90
77305;DHT22;66364;52.622;7.746;2023-07-20T06:52:29;16.10;99.90
77305;DHT22;66364;52.622;7.746;2023-07-20T06:54:30;16.20;99.90
77305;DHT22;66364;52.622;7.746;2023-07-20T06:56:31;16.20;99.90
77305;DHT22;66364;52.622;7.746;2023-07-20T06:58:33;16.20;99.90
77305;DHT22;66364;52.622;7.746;2023-07-20T07:00:35;16.20;99.90
77305;DHT22;66364;52.622;7.746;2023-07-20T07:02:36;16.30;99.90
77305;DHT22;66364;52.622;7.746;2023-07-20T07:04:37;16.40;99.90
77305;DHT22;66364;52.622;7.746;2023-07-20T07:06:38;16.60;99.90
77305;DHT22;66364;52.622;7.746;2023-07-20T07:08:39;16.50;99.90
77305;DHT22;66364;52.622;7.746;2023-07-20T07:10:40;16.50;99.90
77305;DHT22;66364;52.622;7.746;2023-07-20T07:12:41;16.60;99.90
77305;DHT22;66364;52.622;7.746;2023-07-20T07:14:42;16.70;99.90
77305;DHT22;66364;52.622;7.746;2023-07-20T07:16:42;16.80;99.90
77305;DHT22;66364;52.622;7.746;2023-07-20T07:18:44;16.90;99.90
77305;DHT22;66364;52.622;7.746;2023-07-20T07:20:52;17.00;99.90
77305;DHT22;66364;52.622;7.746;2023-07-20T07:22:55;16.90;99.90
77305;DHT22;66364;52.622;7.746;2023-07-20T07:24:56;17.20;99.90
77305;DHT22;66364;52.622;7.746;2023-07-20T07:26:57;17.20;99.90
77305;DHT22;66364;52.622;7.746;2023-07-20T07:28:57;17.30;99.90
77305;DHT22;66364;52.622;7.746;2023-07-20T07:30:58;17.80;99.90
77305;DHT22;66364;52.622;7.746;2023-07-20T07:32:59;17.80;99.90
77305;DHT22;66364;52.622;7.746;2023-07-20T07:35:00;18.00;99.90
77305;DHT22;66364;52.622;7.746;2023-07-20T07:37:01;17.70;99.90
77305;DHT22;66364;52.622;7.746;2023-07-20T07:39:02;18.30;99.90
77305;DHT22;66364;52.622;7.746;2023-07-20T07:41:03;18.20;99.90
77305;DHT22;66364;52.622;7.746;2023-07-20T07:43:04;18.30;99.90
77305;DHT22;66364;52.622;7.746;2023-07-20T07:45:05;18.50;99.90
77305;DHT22;66364;52.622;7.746;2023-07-20T07:47:11;18.30;99.90
77305;DHT22;66364;52.622;7.746;2023-07-20T07:49:12;18.30;99.90
77305;DHT22;66364;52.622;7.746;2023-07-20T07:51:13;18.60;99.90
77305;DHT22;66364;52.622;7.746;2023-07-20T07:53:14;19.00;99.90
77305;DHT22;66364;52.622;7.746;2023-07-20T07:55:15;18.90;99.90
77305;DHT22;66364;52.622;7.746;2023-07-20T07:57:16;19.10;99.90
77305;DHT22;66364;52.622;7.746;2023-07-20T07:59:17;18.80;99.90
77305;DHT22;66364;52.622;7.746;2023-07-20T08:01:19;18.60;99.90
77305;DHT22;66364;52.622;7.746;2023-07-20T08:03:20;18.60;99.90
77305;DHT22;66364;52.622;7.746;2023-07-20T08:05:20;18.10;99.90
77305;DHT22;66364;52.622;7.746;2023-07-20T08:07:21;18.00;99.90
77305;DHT22;66364;52.622;7.746;2023-07-20T08:09:22;17.90;99.90
77305;DHT22;66364;52.622;7.746;2023-07-20T08:11:23;18.10;99.90
77305;DHT22;66364;52.622;7.746;2023-07-20T08:13:25;18.60;99.90
77305;DHT22;66364;52.622;7.746;2023-07-20T08:15:26;18.80;99.90
77305;DHT22;66364;52.622;7.746;2023-07-20T08:17:30;19.00;99.90
77305;DHT22;66364;52.622;7.746;2023-07-20T08:19:31;19.40;99.90
77305;DHT22;66364;52.622;7.746;2023-07-20T08:21:32;19.30;99.90
77305;DHT22;66364;52.622;7.746;2023-07-20T08:23:33;19.50;99.90
77305;DHT22;66364;52.622;7.746;2023-07-20T08:25:39;19.70;99.90
77305;DHT22;66364;52.622;7.746;2023-07-20T08:27:41;19.70;99.90
77305;DHT22;66364;52.622;7.746;2023-07-20T08:29:41;19.60;99.90
77305;DHT22;66364;52.622;7.746;2023-07-20T08:31:42;19.80;99.90
77305;DHT22;66364;52.622;7.746;2023-07-20T08:33:44;20.00;99.90
77305;DHT22;66364;52.622;7.746;2023-07-20T08:35:46;20.10;99.90
77305;DHT22;66364;52.622;7.746;2023-07-20T08:37:47;20.00;99.90
77305;DHT22;66364;52.622;7.746;2023-07-20T08:39:48;20.00;99.90
77305;DHT22;66364;52.622;7.746;2023-07-20T08:41:49;20.30;99.90
77305;DHT22;66364;52.622;7.746;2023-07-20T08:43:52;20.40;99.90
77305;DHT22;66364;52.622;7.746;2023-07-20T08:45:55;20.70;99.90
77305;DHT22;66364;52.622;7.746;2023-07-20T08:47:58;21.00;99.90
77305;DHT22;66364;52.622;7.746;2023-07-20T08:49:59;21.00;99.90
77305;DHT22;66364;52.622;7.746;2023-07-20T08:52:01;20.80;99.90
77305;DHT22;66364;52.622;7.746;2023-07-20T08:54:02;19.90;99.90
77305;DHT22;66364;52.622;7.746;2023-07-20T08:56:04;20.10;99.90
77305;DHT22;66364;52.622;7.746;2023-07-20T08:58:08;19.90;96.10
77305;DHT22;66364;52.622;7.746;2023-07-20T09:00:09;19.70;95.10
77305;DHT22;66364;52.622;7.746;2023-07-20T09:02:15;19.70;97.20
77305;DHT22;66364;52.622;7.746;2023-07-20T09:04:17;19.60;96.20
77305;DHT22;66364;52.622;7.746;2023-07-20T09:06:18;19.70;96.80
77305;DHT22;66364;52.622;7.746;2023-07-20T09:08:19;19.50;99.90
77305;DHT22;66364;52.622;7.746;2023-07-20T09:10:23;19.80;99.90
77305;DHT22;66364;52.622;7.746;2023-07-20T09:12:25;20.30;99.90
77305;DHT22;66364;52.622;7.746;2023-07-20T09:14:28;20.50;97.40
77305;DHT22;66364;52.622;7.746;2023-07-20T09:16:31;20.00;95.10
77305;DHT22;66364;52.622;7.746;2023-07-20T09:18:49;20.50;94.70
77305;DHT22;66364;52.622;7.746;2023-07-20T09:20:50;21.30;91.70
77305;DHT22;66364;52.622;7.746;2023-07-20T09:22:51;21.80;81.40
77305;DHT22;66364;52.622;7.746;2023-07-20T09:24:53;22.20;78.90
77305;DHT22;66364;52.622;7.746;2023-07-20T09:26:54;22.10;76.10
77305;DHT22;66364;52.622;7.746;2023-07-20T09:28:55;21.60;75.80
77305;DHT22;66364;52.622;7.746;2023-07-20T09:30:56;21.40;75.40
77305;DHT22;66364;52.622;7.746;2023-07-20T09:32:58;21.10;72.40
77305;DHT22;66364;52.622;7.746;2023-07-20T09:34:59;20.80;73.90
77305;DHT22;66364;52.622;7.746;2023-07-20T09:37:00;20.60;76.10
77305;DHT22;66364;52.622;7.746;2023-07-20T09:39:02;20.00;77.80
77305;DHT22;66364;52.622;7.746;2023-07-20T09:41:06;20.40;78.60
77305;DHT22;66364;52.622;7.746;2023-07-20T09:43:08;20.00;80.00
77305;DHT22;66364;52.622;7.746;2023-07-20T09:45:10;19.80;78.70
77305;DHT22;66364;52.622;7.746;2023-07-20T09:47:12;19.60;84.20
77305;DHT22;66364;52.622;7.746;2023-07-20T09:49:14;19.70;79.50
77305;DHT22;66364;52.622;7.746;2023-07-20T09:51:15;20.00;80.60
77305;DHT22;66364;52.622;7.746;2023-07-20T09:53:17;20.60;77.10
77305;DHT22;66364;52.622;7.746;2023-07-20T09:55:19;21.60;73.80
77305;DHT22;66364;52.622;7.746;2023-07-20T09:57:21;22.40;67.70
77305;DHT22;66364;52.622;7.746;2023-07-20T09:59:21;22.80;62.30
77305;DHT22;66364;52.622;7.746;2023-07-20T10:01:23;23.30;61.30
77305;DHT22;66364;52.622;7.746;2023-07-20T10:05:43;24.00;57.70
77305;DHT22;66364;52.622;7.746;2023-07-20T10:07:50;24.10;48.70
77305;DHT22;66364;52.622;7.746;2023-07-20T10:10:02;24.50;48.40
77305;DHT22;66364;52.622;7.746;2023-07-20T10:12:05;23.80;38.50
77305;DHT22;66364;52.622;7.746;2023-07-20T10:14:07;23.10;42.60
77305;DHT22;66364;52.622;7.746;2023-07-20T10:16:11;23.60;43.20
77305;DHT22;66364;52.622;7.746;2023-07-20T10:18:31;24.00;38.60
77305;DHT22;66364;52.622;7.746;2023-07-20T10:20:32;24.20;39.90
77305;DHT22;66364;52.622;7.746;2023-07-20T10:22:36;23.60;48.50
77305;DHT22;66364;52.622;7.746;2023-07-20T10:24:38;22.50;46.80
77305;DHT22;66364;52.622;7.746;2023-07-20T10:26:40;22.00;59.30
77305;DHT22;66364;52.622;7.746;2023-07-20T10:28:41;22.50;60.40
77305;DHT22;66364;52.622;7.746;2023-07-20T10:30:42;23.50;59.00
77305;DHT22;66364;52.622;7.746;2023-07-20T10:32:44;24.00;52.80
77305;DHT22;66364;52.622;7.746;2023-07-20T10:34:52;24.10;48.80
77305;DHT22;66364;52.622;7.746;2023-07-20T10:36:53;24.20;46.10
77305;DHT22;66364;52.622;7.746;2023-07-20T10:38:56;24.10;40.60
77305;DHT22;66364;52.622;7.746;2023-07-20T10:40:58;24.60;36.90
77305;DHT22;66364;52.622;7.746;2023-07-20T10:43:04;25.00;32.20
77305;DHT22;66364;52.622;7.746;2023-07-20T10:45:06;25.00;30.40
77305;DHT22;66364;52.622;7.746;2023-07-20T10:47:12;25.10;34.10
77305;DHT22;66364;52.622;7.746;2023-07-20T10:49:14;25.60;31.40
77305;DHT22;66364;52.622;7.746;2023-07-20T10:51:20;25.10;31.70
77305;DHT22;66364;52.622;7.746;2023-07-20T10:53:21;24.10;35.90
77305;DHT22;66364;52.622;7.746;2023-07-20T10:55:22;23.90;36.50
77305;DHT22;66364;52.622;7.746;2023-07-20T10:57:28;24.30;36.20
77305;DHT22;66364;52.622;7.746;2023-07-20T11:01:35;24.30;33.90
77305;DHT22;66364;52.622;7.746;2023-07-20T11:03:38;24.20;37.50
77305;DHT22;66364;52.622;7.746;2023-07-20T11:05:39;23.50;36.60
77305;DHT22;66364;52.622;7.746;2023-07-20T11:07:40;23.30;39.30
77305;DHT22;66364;52.622;7.746;2023-07-20T11:09:41;23.10;40.10
77305;DHT22;66364;52.622;7.746;2023-07-20T11:11:47;23.20;44.30
77305;DHT22;66364;52.622;7.746;2023-07-20T11:13:59;23.50;39.10
77305;DHT22;66364;52.622;7.746;2023-07-20T11:16:02;24.10;38.10
77305;DHT22;66364;52.622;7.746;2023-07-20T11:18:11;24.70;33.30
77305;DHT22;66364;52.622;7.746;2023-07-20T11:20:13;25.30;30.40
77305;DHT22;66364;52.622;7.746;2023-07-20T11:22:16;25.70;28.60
77305;DHT22;66364;52.622;7.746;2023-07-20T11:24:18;25.90;27.40
77305;DHT22;66364;52.622;7.746;2023-07-20T11:26:19;25.80;24.00
77305;DHT22;66364;52.622;7.746;2023-07-20T11:28:20;25.10;25.10
77305;DHT22;66364;52.622;7.746;2023-07-20T11:30:21;23.70;27.00
77305;DHT22;66364;52.622;7.746;2023-07-20T11:32:23;22.70;30.90
77305;DHT22;66364;52.622;7.746;2023-07-20T11:34:25;23.00;39.60
77305;DHT22;66364;52.622;7.746;2023-07-20T11:36:26;23.60;34.80
77305;DHT22;66364;52.622;7.746;2023-07-20T11:38:27;23.60;35.10
77305;DHT22;66364;52.622;7.746;2023-07-20T11:40:28;24.00;33.40
77305;DHT22;66364;52.622;7.746;2023-07-20T11:42:29;24.40;30.20
77305;DHT22;66364;52.622;7.746;2023-07-20T11:44:30;24.40;33.00
77305;DHT22;66364;52.622;7.746;2023-07-20T11:46:32;24.40;33.60
77305;DHT22;66364;52.622;7.746;2023-07-20T11:48:33;24.40;33.60
77305;DHT22;66364;52.622;7.746;2023-07-20T11:50:39;24.80;29.60
77305;DHT22;66364;52.622;7.746;2023-07-20T11:52:40;24.30;28.20
77305;DHT22;66364;52.622;7.746;2023-07-20T11:54:42;23.50;28.10
77305;DHT22;66364;52.622;7.746;2023-07-20T11:56:44;23.00;31.80
77305;DHT22;66364;52.622;7.746;2023-07-20T11:58:45;22.90;32.90
77305;DHT22;66364;52.622;7.746;2023-07-20T12:00:47;22.70;33.80
77305;DHT22;66364;52.622;7.746;2023-07-20T12:02:48;22.50;34.80
77305;DHT22;66364;52.622;7.746;2023-07-20T12:04:49;22.20;39.60
77305;DHT22;66364;52.622;7.746;2023-07-20T12:06:53;22.10;39.10
77305;DHT22;66364;52.622;7.746;2023-07-20T12:08:55;22.00;40.50
77305;DHT22;66364;52.622;7.746;2023-07-20T12:10:57;22.00;35.50
77305;DHT22;66364;52.622;7.746;2023-07-20T12:13:02;21.90;38.10
77305;DHT22;66364;52.622;7.746;2023-07-20T12:15:16;21.70;38.40
77305;DHT22;66364;52.622;7.746;2023-07-20T12:17:17;21.60;42.30
77305;DHT22;66364;52.622;7.746;2023-07-20T12:19:18;21.70;43.80
77305;DHT22;66364;52.622;7.746;2023-07-20T12:21:19;21.60;44.40
77305;DHT22;66364;52.622;7.746;2023-07-20T12:23:20;20.60;46.90
77305;DHT22;66364;52.622;7.746;2023-07-20T12:25:20;20.70;50.90
77305;DHT22;66364;52.622;7.746;2023-07-20T12:27:21;20.50;53.70
77305;DHT22;66364;52.622;7.746;2023-07-20T12:29:22;20.40;57.30
77305;DHT22;66364;52.622;7.746;2023-07-20T12:31:24;20.50;58.90
77305;DHT22;66364;52.622;7.746;2023-07-20T12:33:25;20.40;60.80
77305;DHT22;66364;52.622;7.746;2023-07-20T12:35:26;20.50;59.70
77305;DHT22;66364;52.622;7.746;2023-07-20T12:37:28;20.50;59.30
77305;DHT22;66364;52.622;7.746;2023-07-20T12:39:29;20.30;59.50
77305;DHT22;66364;52.622;7.746;2023-07-20T12:41:30;20.20;62.00
77305;DHT22;66364;52.622;7.746;2023-07-20T12:43:31;20.30;61.90
77305;DHT22;66364;52.622;7.746;2023-07-20T12:45:32;20.40;62.50
77305;DHT22;66364;52.622;7.746;2023-07-20T12:47:33;20.30;64.80
77305;DHT22;66364;52.622;7.746;2023-07-20T12:49:34;20.50;60.60
77305;DHT22;66364;52.622;7.746;2023-07-20T12:51:36;20.10;62.40
77305;DHT22;66364;52.622;7.746;2023-07-20T12:53:37;20.00;62.80
77305;DHT22;66364;52.622;7.746;2023-07-20T12:55:38;19.80;65.20
77305;DHT22;66364;52.622;7.746;2023-07-20T12:57:40;19.80;65.80
77305;DHT22;66364;52.622;7.746;2023-07-20T12:59:41;19.90;65.60
77305;DHT22;66364;52.622;7.746;2023-07-20T13:01:42;19.70;64.00
77305;DHT22;66364;52.622;7.746;2023-07-20T13:03:43;19.60;64.90
77305;DHT22;66364;52.622;7.746;2023-07-20T13:05:45;19.50;65.30